Seekonk, Massachusetts
Current Conditions -  °F | °C
As of 6:51 PM on Sunday 21 Dec 2014 (Local Time) from KPVD Reporting Station
Overcast Overcast  
Wind Chill: 27°   Ceiling: 1100
Heat Index: 34°   Visibility: 10mi
Dew Point: 30°   Wind: 9mph
Humidity: 85%   Direction: 10°N
Pressure: 30.33"   Gusts: NA
Location:  41.81°N, 71.34°W
Report Text: KPVD 212351Z 01008KT 10SM BKN011 BKN021 OVC055 01/M01 A3033 RMK AO2 SLP271 60001 T00111011 10011 20006 51013
Loading
Personal Weather Stations






























Interactive Weather Map New forecast layout! Learn more

10-Day Weather Forecast

Advertisements
Track Severe Weather on mobile